Time;durP1;ratioP1;P1;durP2;ratioP2;P2;SDS_P1;SDS_P2;PMS_P1;PMS_P2;Temp;Humidity;BMP_temperature;BMP_pressure;BME280_temperature;BME280_humidity;BME280_pressure;Samples;Min_cycle;Max_cycle;Signal;HPM_P1;HPM_P2
2023/10/18 00:02:10;;;;;;;7.43;5.18;;;6.30;99.90;;;;;;5069973;28;20207;-71
2023/10/18 00:04:39;;;;;;;5.32;4.80;;;6.30;99.90;;;;;;5073189;28;20225;-73
2023/10/18 00:07:07;;;;;;;7.57;4.90;;;6.20;99.90;;;;;;5071729;28;20221;-74
2023/10/18 00:09:45;;;;;;;5.95;5.20;;;6.20;99.90;;;;;;5073368;28;20196;-74
2023/10/18 00:12:16;;;;;;;7.15;5.65;;;6.20;99.90;;;;;;5073144;28;20228;-73
2023/10/18 00:14:44;;;;;;;7.43;6.00;;;6.10;99.90;;;;;;5060194;28;20210;-74
2023/10/18 00:17:12;;;;;;;12.57;5.40;;;6.10;99.90;;;;;;5072704;28;20217;-74
2023/10/18 00:19:40;;;;;;;9.52;5.15;;;6.10;99.90;;;;;;5075118;28;20198;-75
2023/10/18 00:22:10;;;;;;;14.65;4.85;;;6.10;99.90;;;;;;5078665;28;20206;-75
2023/10/18 00:24:38;;;;;;;6.47;4.45;;;6.10;99.90;;;;;;5082107;28;20216;-72
2023/10/18 00:27:05;;;;;;;5.10;4.60;;;6.10;99.90;;;;;;5086515;28;20234;-73
2023/10/18 00:29:32;;;;;;;9.88;5.20;;;6.10;99.90;;;;;;5089077;28;20216;-74
2023/10/18 00:31:59;;;;;;;5.03;4.63;;;6.10;99.90;;;;;;5081099;28;20275;-73
2023/10/18 00:34:33;;;;;;;6.03;4.47;;;6.10;99.90;;;;;;5080486;28;20375;-74
2023/10/18 00:37:00;;;;;;;5.00;4.10;;;6.10;99.90;;;;;;5080150;28;20227;-73
2023/10/18 00:39:32;;;;;;;7.47;4.85;;;6.20;99.90;;;;;;5076304;28;20204;-74
2023/10/18 00:42:23;;;;;;;5.95;4.07;;;6.20;99.90;;;;;;5077563;28;20218;-73
2023/10/18 00:44:48;;;;;;;4.88;4.38;;;6.10;99.90;;;;;;5071647;28;20203;-74
2023/10/18 00:47:16;;;;;;;5.53;4.43;;;6.10;99.90;;;;;;5069394;28;20231;-74
2023/10/18 00:49:43;;;;;;;6.82;6.13;;;6.10;99.90;;;;;;5072784;28;20205;-73
2023/10/18 00:52:15;;;;;;;5.57;4.97;;;6.10;99.90;;;;;;5072478;28;20315;-73
2023/10/18 00:54:44;;;;;;;5.13;4.63;;;6.10;99.90;;;;;;5072514;28;20206;-73
2023/10/18 00:57:12;;;;;;;8.07;4.97;;;6.10;99.90;;;;;;5070082;28;20258;-73
2023/10/18 00:59:40;;;;;;;7.68;4.85;;;6.10;99.90;;;;;;5066328;28;20211;-73
2023/10/18 01:02:11;;;;;;;11.95;4.60;;;6.10;99.90;;;;;;5072301;28;20191;-73
2023/10/18 01:04:40;;;;;;;5.20;4.68;;;6.00;99.90;;;;;;5072296;28;20663;-72
2023/10/18 01:07:11;;;;;;;8.05;4.57;;;6.00;99.90;;;;;;5071468;28;20232;-74
2023/10/18 01:09:43;;;;;;;4.22;3.72;;;6.10;99.90;;;;;;5068694;28;20200;-74
2023/10/18 01:12:14;;;;;;;4.82;4.35;;;6.20;99.90;;;;;;5064562;28;20232;-74
2023/10/18 01:14:42;;;;;;;6.22;4.50;;;6.00;99.90;;;;;;5072666;28;20204;-72
2023/10/18 01:17:09;;;;;;;5.75;5.05;;;6.00;99.90;;;;;;5071640;28;20223;-74
2023/10/18 01:19:36;;;;;;;7.28;4.75;;;6.00;99.90;;;;;;5072299;28;20291;-73
2023/10/18 01:22:04;;;;;;;5.25;4.75;;;6.00;99.90;;;;;;5072110;28;20200;-73
2023/10/18 01:24:35;;;;;;;4.65;4.25;;;6.00;99.90;;;;;;5072203;28;20215;-74
2023/10/18 01:27:03;;;;;;;8.38;5.15;;;6.00;99.90;;;;;;5072763;28;20222;-74
2023/10/18 01:29:30;;;;;;;4.50;4.10;;;6.00;99.90;;;;;;5076294;28;20598;-74
2023/10/18 01:31:58;;;;;;;6.15;5.32;;;6.00;99.90;;;;;;5075836;28;20221;-72
2023/10/18 01:34:25;;;;;;;5.90;4.57;;;6.00;99.90;;;;;;5076216;28;20229;-74
2023/10/18 01:36:56;;;;;;;5.72;5.22;;;6.00;99.90;;;;;;5074290;28;20657;-74
2023/10/18 01:39:28;;;;;;;5.50;4.18;;;6.00;99.90;;;;;;5075370;28;20210;-74
2023/10/18 01:41:58;;;;;;;8.50;6.47;;;6.00;99.90;;;;;;5074593;28;20248;-74
2023/10/18 01:44:32;;;;;;;10.90;6.00;;;6.00;99.90;;;;;;5075865;28;20209;-74
2023/10/18 01:47:06;;;;;;;7.50;5.63;;;5.90;99.90;;;;;;5075324;28;20224;-74
2023/10/18 01:49:33;;;;;;;4.15;3.75;;;5.90;99.90;;;;;;5075926;28;20522;-74
2023/10/18 01:52:02;;;;;;;5.68;4.85;;;5.90;99.90;;;;;;5075292;28;20299;-74
2023/10/18 01:54:29;;;;;;;7.80;4.57;;;5.80;99.90;;;;;;5072650;28;20682;-74
2023/10/18 01:56:59;;;;;;;7.25;5.95;;;5.80;99.90;;;;;;5074844;28;20246;-74
2023/10/18 01:59:28;;;;;;;8.85;5.28;;;5.80;99.90;;;;;;5073742;28;20729;-74
2023/10/18 02:01:57;;;;;;;5.97;4.38;;;5.70;99.90;;;;;;5073004;28;20200;-74
2023/10/18 02:04:25;;;;;;;6.00;5.18;;;5.70;99.90;;;;;;5075355;28;20688;-73
2023/10/18 02:06:57;;;;;;;6.20;5.00;;;5.70;99.90;;;;;;5075305;28;20665;-74
2023/10/18 02:09:25;;;;;;;7.63;4.78;;;5.70;99.90;;;;;;5074119;28;20199;-74
2023/10/18 02:11:52;;;;;;;8.88;6.15;;;5.70;99.90;;;;;;5072996;28;20554;-74
2023/10/18 02:14:20;;;;;;;6.10;4.88;;;5.70;99.90;;;;;;5074771;28;20280;-73
2023/10/18 02:16:47;;;;;;;5.28;4.68;;;5.70;99.90;;;;;;5072471;28;20622;-73
2023/10/18 02:19:16;;;;;;;11.52;5.07;;;5.70;99.90;;;;;;5072928;28;20206;-72
2023/10/18 02:21:43;;;;;;;4.78;4.20;;;5.60;99.90;;;;;;5073238;28;20200;-73
2023/10/18 02:24:13;;;;;;;5.85;5.30;;;5.70;99.90;;;;;;5074991;28;20674;-72
2023/10/18 02:26:53;;;;;;;5.40;4.90;;;5.70;99.90;;;;;;5074224;28;20225;-73
2023/10/18 02:29:22;;;;;;;9.57;6.45;;;5.70;99.90;;;;;;5074561;28;20216;-72
2023/10/18 02:31:50;;;;;;;5.82;5.30;;;5.60;99.90;;;;;;5075146;28;20196;-73
2023/10/18 02:34:18;;;;;;;7.95;5.53;;;5.60;99.90;;;;;;5074489;28;20587;-74
2023/10/18 02:36:51;;;;;;;10.30;4.93;;;5.50;99.90;;;;;;5074280;28;20215;-73
2023/10/18 02:39:23;;;;;;;10.52;5.45;;;5.50;99.90;;;;;;5073899;28;20204;-74
2023/10/18 02:41:50;;;;;;;5.65;5.15;;;5.50;99.90;;;;;;5074241;28;20211;-74
2023/10/18 02:44:29;;;;;;;5.93;4.63;;;5.50;99.90;;;;;;5074547;28;20295;-73
2023/10/18 02:47:10;;;;;;;6.75;5.45;;;5.50;99.90;;;;;;5071950;28;20251;-73
2023/10/18 02:49:37;;;;;;;5.72;5.22;;;5.40;99.90;;;;;;5051991;28;20249;-73
2023/10/18 02:52:04;;;;;;;7.95;5.35;;;5.40;99.90;;;;;;5072509;28;20200;-73
2023/10/18 02:54:33;;;;;;;6.85;5.57;;;5.40;99.90;;;;;;5074433;28;20238;-73
2023/10/18 02:57:01;;;;;;;5.63;5.00;;;5.40;99.90;;;;;;5071537;28;20225;-73
2023/10/18 02:59:31;;;;;;;9.55;5.53;;;5.40;99.90;;;;;;5064697;28;20282;-72
2023/10/18 03:02:01;;;;;;;10.55;6.30;;;5.30;99.90;;;;;;5073942;28;20211;-73
2023/10/18 03:04:29;;;;;;;7.28;5.15;;;5.30;99.90;;;;;;5066200;28;20254;-74
2023/10/18 03:06:56;;;;;;;7.70;5.75;;;5.30;99.90;;;;;;5073234;28;20251;-73
2023/10/18 03:09:27;;;;;;;7.95;5.00;;;5.30;99.90;;;;;;5073542;28;20212;-73
2023/10/18 03:11:55;;;;;;;7.75;5.18;;;5.30;99.90;;;;;;5074401;28;20222;-73
2023/10/18 03:14:36;;;;;;;7.60;6.03;;;5.30;99.90;;;;;;5073058;28;20278;-73
2023/10/18 03:17:14;;;;;;;6.13;5.43;;;5.30;99.90;;;;;;5069892;28;20226;-74
2023/10/18 03:19:42;;;;;;;7.53;5.13;;;5.20;99.90;;;;;;5060140;28;20546;-74
2023/10/18 03:22:09;;;;;;;7.63;5.97;;;5.20;99.90;;;;;;5073749;28;20223;-74
2023/10/18 03:24:36;;;;;;;5.97;4.88;;;5.20;99.90;;;;;;5072667;28;20196;-74
2023/10/18 03:27:08;;;;;;;8.95;5.10;;;5.20;99.90;;;;;;5073486;28;20220;-74
2023/10/18 03:29:37;;;;;;;6.00;4.35;;;5.20;99.90;;;;;;5073691;28;20203;-74
2023/10/18 03:32:08;;;;;;;7.57;5.40;;;5.20;99.90;;;;;;5073873;28;20231;-74
2023/10/18 03:34:37;;;;;;;7.22;5.63;;;5.30;99.90;;;;;;5073608;28;20234;-74
2023/10/18 03:37:05;;;;;;;7.10;6.38;;;5.20;99.90;;;;;;5072722;28;20247;-74
2023/10/18 03:39:32;;;;;;;6.93;5.85;;;5.20;99.90;;;;;;5066259;28;20205;-73
2023/10/18 03:42:00;;;;;;;6.05;5.55;;;5.20;99.90;;;;;;5073503;28;20211;-73
2023/10/18 03:44:28;;;;;;;5.05;4.55;;;5.20;99.90;;;;;;5073845;28;20288;-74
2023/10/18 03:47:03;;;;;;;7.00;5.70;;;5.20;99.90;;;;;;5073848;28;20643;-74
2023/10/18 03:49:33;;;;;;;7.50;5.32;;;5.20;99.90;;;;;;5050736;28;20241;-74
2023/10/18 03:52:16;;;;;;;5.65;5.00;;;5.20;99.90;;;;;;5076541;28;20203;-73
2023/10/18 03:54:47;;;;;;;6.20;4.75;;;5.10;99.90;;;;;;5086976;28;20227;-74
2023/10/18 03:57:17;;;;;;;6.20;5.10;;;5.20;99.90;;;;;;5087442;28;20253;-72
2023/10/18 03:59:46;;;;;;;6.88;6.13;;;5.20;99.90;;;;;;5089539;28;20198;-73
2023/10/18 04:02:20;;;;;;;8.60;4.95;;;5.20;99.90;;;;;;5093247;28;20183;-74
2023/10/18 04:04:49;;;;;;;9.57;5.20;;;5.20;99.90;;;;;;5080056;28;20585;-73
2023/10/18 04:07:20;;;;;;;5.45;4.95;;;5.20;99.90;;;;;;5073339;28;20272;-73
2023/10/18 04:09:53;;;;;;;8.27;4.85;;;5.20;99.90;;;;;;5073363;28;20665;-73
2023/10/18 04:12:22;;;;;;;5.47;4.72;;;5.30;99.90;;;;;;5055130;28;20570;-73
2023/10/18 04:14:56;;;;;;;5.97;4.72;;;5.30;99.90;;;;;;5072318;28;20199;-73
2023/10/18 04:17:36;;;;;;;5.75;4.75;;;5.30;99.90;;;;;;5072227;28;20219;-73
2023/10/18 04:20:15;;;;;;;6.97;5.90;;;5.30;99.90;;;;;;5054584;28;20228;-74
2023/10/18 04:22:43;;;;;;;9.73;6.20;;;5.30;99.90;;;;;;5051006;28;20596;-74
2023/10/18 04:25:14;;;;;;;7.00;5.53;;;5.20;99.90;;;;;;5069970;28;20210;-73
2023/10/18 04:27:42;;;;;;;6.60;5.90;;;5.20;99.90;;;;;;5072489;28;20640;-74
2023/10/18 04:30:13;;;;;;;7.82;5.85;;;5.20;99.90;;;;;;5070093;28;20222;-74
2023/10/18 04:32:40;;;;;;;6.45;5.10;;;5.20;99.90;;;;;;5073135;28;20229;-74
2023/10/18 04:35:17;;;;;;;7.30;5.63;;;5.20;99.90;;;;;;5072717;28;20291;-74
2023/10/18 04:37:47;;;;;;;9.35;6.47;;;5.20;99.90;;;;;;5066564;28;20227;-74
2023/10/18 04:40:22;;;;;;;8.25;5.47;;;5.20;99.90;;;;;;5072299;28;20233;-74
2023/10/18 04:42:50;;;;;;;6.80;5.85;;;5.20;99.90;;;;;;5067813;28;20217;-73
2023/10/18 04:45:18;;;;;;;7.07;5.18;;;5.20;99.90;;;;;;5072721;28;20298;-74
2023/10/18 04:47:49;;;;;;;8.00;6.28;;;5.20;99.90;;;;;;5071912;28;20235;-73
2023/10/18 04:50:19;;;;;;;7.05;5.68;;;5.10;99.90;;;;;;5072528;28;20199;-74
2023/10/18 04:52:50;;;;;;;14.57;6.07;;;5.10;99.90;;;;;;5072308;28;20206;-74
2023/10/18 04:55:15;;;;;;;9.63;5.50;;;5.00;99.90;;;;;;5072661;28;20210;-74
2023/10/18 04:57:43;;;;;;;9.37;6.20;;;5.10;99.90;;;;;;5071605;28;20214;-74
2023/10/18 05:02:58;;;;;;;8.75;6.32;;;5.20;99.90;;;;;;5071502;28;20723;-73
2023/10/18 05:05:27;;;;;;;9.00;6.00;;;5.20;99.90;;;;;;5075687;28;20583;-73
2023/10/18 05:07:54;;;;;;;12.88;6.60;;;5.10;99.90;;;;;;5075626;28;20571;-72
2023/10/18 05:10:21;;;;;;;8.25;6.35;;;5.10;99.90;;;;;;5076092;28;20207;-73
2023/10/18 05:12:53;;;;;;;8.48;5.72;;;5.10;99.90;;;;;;5076551;28;20203;-74
2023/10/18 05:15:29;;;;;;;9.25;5.97;;;5.10;99.90;;;;;;5076629;28;20199;-73
2023/10/18 05:18:04;;;;;;;8.20;6.60;;;5.10;99.90;;;;;;5076126;28;20218;-73
2023/10/18 05:20:55;;;;;;;7.40;5.57;;;5.00;99.90;;;;;;5058047;28;20202;-73
2023/10/18 05:23:23;;;;;;;13.70;6.63;;;5.10;99.90;;;;;;5076522;28;20571;-75
2023/10/18 05:25:56;;;;;;;11.07;7.15;;;5.10;99.90;;;;;;5075704;28;20210;-75
2023/10/18 05:28:28;;;;;;;9.40;7.07;;;5.10;99.90;;;;;;5075638;28;20307;-74
2023/10/18 05:33:54;;;;;;;12.85;6.25;;;5.00;99.90;;;;;;5069603;28;20220;-76
2023/10/18 05:36:35;;;;;;;8.00;6.22;;;5.10;99.90;;;;;;5075477;28;20661;-77
2023/10/18 05:39:27;;;;;;;12.30;7.18;;;5.10;99.90;;;;;;5071634;28;20196;-72
2023/10/18 05:41:59;;;;;;;12.98;9.15;;;5.10;99.90;;;;;;5074960;28;20230;-69
2023/10/18 05:44:27;;;;;;;9.85;7.30;;;5.10;99.90;;;;;;5076096;28;20195;-74
2023/10/18 05:47:06;;;;;;;9.98;8.13;;;5.10;99.90;;;;;;5075430;28;20223;-73
2023/10/18 05:49:40;;;;;;;9.75;6.75;;;5.20;99.90;;;;;;5059185;28;20208;-75
2023/10/18 05:52:22;;;;;;;9.05;6.88;;;5.20;99.90;;;;;;5057419;28;20199;-74
2023/10/18 05:54:49;;;;;;;10.68;7.47;;;5.20;99.90;;;;;;5075819;28;20210;-74
2023/10/18 05:57:19;;;;;;;10.98;7.63;;;5.30;99.90;;;;;;5071577;28;20259;-74
2023/10/18 05:59:48;;;;;;;10.13;7.25;;;5.30;99.90;;;;;;5069957;28;20253;-73
2023/10/18 06:02:22;;;;;;;13.50;8.18;;;5.30;99.90;;;;;;5076040;28;20230;-75
2023/10/18 06:04:51;;;;;;;11.93;7.00;;;5.30;99.90;;;;;;5075297;28;20199;-73
2023/10/18 06:07:22;;;;;;;8.98;7.50;;;5.30;99.90;;;;;;5074717;28;20229;-72
2023/10/18 06:09:54;;;;;;;9.18;7.60;;;5.30;99.90;;;;;;5075161;28;20198;-73
2023/10/18 06:12:27;;;;;;;9.48;6.50;;;5.40;99.90;;;;;;5075858;28;20581;-74
2023/10/18 06:14:57;;;;;;;11.55;6.90;;;5.40;99.90;;;;;;5075020;28;20677;-74
2023/10/18 06:17:26;;;;;;;7.63;6.20;;;5.40;99.90;;;;;;5074805;28;20219;-73
2023/10/18 06:19:56;;;;;;;11.15;7.70;;;5.50;99.90;;;;;;5075884;28;20199;-73
2023/10/18 06:22:39;;;;;;;9.50;6.90;;;5.50;99.90;;;;;;5074889;28;20204;-74
2023/10/18 06:25:09;;;;;;;10.15;7.72;;;5.50;99.90;;;;;;5067116;28;20247;-75
2023/10/18 06:27:40;;;;;;;9.77;6.82;;;5.60;99.90;;;;;;5069312;28;20223;-77
2023/10/18 06:30:14;;;;;;;11.27;7.18;;;5.70;99.90;;;;;;5075278;28;20204;-74
2023/10/18 06:32:41;;;;;;;12.38;7.38;;;5.70;99.90;;;;;;5062064;28;20211;-76
2023/10/18 06:35:15;;;;;;;13.27;7.07;;;5.80;99.90;;;;;;5074835;28;20678;-76
2023/10/18 06:37:44;;;;;;;11.40;7.40;;;5.90;99.90;;;;;;5080246;28;20298;-75
2023/10/18 06:40:21;;;;;;;10.95;8.43;;;6.00;99.90;;;;;;5087034;28;20227;-75
2023/10/18 06:42:48;;;;;;;9.57;8.55;;;6.10;99.90;;;;;;5083004;28;20311;-72
2023/10/18 06:45:17;;;;;;;12.73;8.27;;;6.20;99.90;;;;;;5086085;28;20284;-74
2023/10/18 06:47:45;;;;;;;11.40;9.05;;;6.30;99.90;;;;;;5088340;28;20299;-71
2023/10/18 06:50:14;;;;;;;9.35;8.20;;;6.40;99.90;;;;;;5086337;28;20267;-74
2023/10/18 06:52:52;;;;;;;13.15;8.70;;;6.50;99.90;;;;;;5075392;28;20203;-75
2023/10/18 06:55:35;;;;;;;13.60;8.38;;;6.70;99.90;;;;;;5077222;28;20261;-74
2023/10/18 06:58:11;;;;;;;10.52;8.38;;;7.00;99.90;;;;;;5074466;28;20274;-74
2023/10/18 07:00:43;;;;;;;15.90;11.00;;;7.30;99.90;;;;;;5062313;28;20267;-75
2023/10/18 07:03:16;;;;;;;10.75;8.23;;;7.50;99.90;;;;;;5075130;28;20219;-76
2023/10/18 07:05:46;;;;;;;9.25;7.80;;;7.80;99.90;;;;;;5074071;28;20195;-74
2023/10/18 07:08:20;;;;;;;12.50;8.55;;;8.10;99.90;;;;;;5074397;28;20222;-75
2023/10/18 07:10:54;;;;;;;10.40;7.55;;;8.40;99.90;;;;;;5074136;28;20227;-76
2023/10/18 07:13:32;;;;;;;14.13;9.38;;;8.60;99.90;;;;;;5064136;28;20206;-76
2023/10/18 07:16:01;;;;;;;13.43;10.10;;;8.90;99.90;;;;;;5056518;28;20221;-74
2023/10/18 07:18:28;;;;;;;11.25;9.02;;;9.50;99.90;;;;;;5073087;28;20217;-73
2023/10/18 07:20:59;;;;;;;7.75;6.70;;;9.80;99.90;;;;;;5073534;28;20196;-76
2023/10/18 07:23:27;;;;;;;11.20;8.80;;;10.30;99.90;;;;;;5072656;28;20210;-75
2023/10/18 07:25:55;;;;;;;11.45;8.45;;;10.70;99.90;;;;;;5065264;28;20214;-76
2023/10/18 07:28:29;;;;;;;9.15;7.82;;;11.10;99.90;;;;;;5072177;28;20380;-77
2023/10/18 07:30:56;;;;;;;8.68;7.63;;;11.70;99.90;;;;;;5067213;28;20206;-77
2023/10/18 07:33:23;;;;;;;8.20;7.15;;;12.00;99.90;;;;;;5073240;28;20197;-74
2023/10/18 07:35:52;;;;;;;10.95;7.53;;;12.30;99.90;;;;;;5073504;28;20211;-76
2023/10/18 07:38:25;;;;;;;7.70;6.88;;;12.60;99.90;;;;;;5072348;28;20222;-76
2023/10/18 07:41:04;;;;;;;8.68;7.53;;;13.00;99.90;;;;;;5072644;28;20290;-76
2023/10/18 07:43:32;;;;;;;11.13;8.65;;;13.20;99.90;;;;;;5073325;28;20335;-76
2023/10/18 07:46:06;;;;;;;10.13;7.90;;;13.50;99.90;;;;;;5073223;28;20199;-79
2023/10/18 07:48:37;;;;;;;8.98;7.75;;;13.70;99.90;;;;;;5068018;28;20203;-73
2023/10/18 07:51:21;;;;;;;11.38;7.65;;;14.20;99.90;;;;;;5072103;28;20287;-72
2023/10/18 07:53:49;;;;;;;9.18;6.53;;;14.80;99.90;;;;;;5073564;28;20307;-76
2023/10/18 07:56:17;;;;;;;10.40;7.10;;;15.30;98.40;;;;;;5072779;28;20583;-75
2023/10/18 07:58:49;;;;;;;13.77;8.10;;;15.70;96.80;;;;;;5072361;28;20538;-75
2023/10/18 08:01:32;;;;;;;9.35;8.30;;;15.40;96.20;;;;;;5065634;28;20502;-78
2023/10/18 08:04:01;;;;;;;11.73;7.77;;;15.60;96.70;;;;;;5071957;28;20200;-76
2023/10/18 08:06:33;;;;;;;11.60;8.23;;;15.60;96.10;;;;;;5069515;28;20956;-76
2023/10/18 08:09:04;;;;;;;7.93;6.83;;;15.60;96.30;;;;;;5072700;28;20451;-78
2023/10/18 08:11:34;;;;;;;9.10;8.17;;;15.50;96.10;;;;;;5072352;28;20496;-76
2023/10/18 08:14:16;;;;;;;10.13;8.67;;;15.80;95.90;;;;;;5067928;28;20588;-75
2023/10/18 08:16:52;;;;;;;8.93;7.90;;;16.40;95.20;;;;;;5072891;28;20475;-78
2023/10/18 08:19:25;;;;;;;8.50;7.67;;;16.70;93.90;;;;;;5058985;28;20445;-78
2023/10/18 08:24:49;;;;;;;11.87;7.40;;;17.00;93.20;;;;;;5068966;28;20432;-75
2023/10/18 08:27:21;;;;;;;8.90;8.00;;;16.80;92.50;;;;;;5071821;28;20469;-76
2023/10/18 08:30:06;;;;;;;8.83;7.50;;;16.90;93.20;;;;;;5071453;28;20452;-76
2023/10/18 08:32:33;;;;;;;9.63;7.50;;;16.50;93.10;;;;;;5072426;28;20833;-76
2023/10/18 08:35:08;;;;;;;7.43;6.63;;;16.30;93.50;;;;;;5072278;28;20610;-78
2023/10/18 08:37:36;;;;;;;8.50;7.40;;;16.40;93.70;;;;;;5064147;28;20472;-78
2023/10/18 08:40:09;;;;;;;9.90;6.57;;;16.40;93.90;;;;;;5072098;28;20452;-75
2023/10/18 08:42:43;;;;;;;7.27;6.40;;;16.50;93.10;;;;;;5073870;28;20445;-77
2023/10/18 08:45:19;;;;;;;9.17;7.13;;;16.40;93.10;;;;;;5073086;28;20838;-76
2023/10/18 08:47:49;;;;;;;7.60;6.80;;;16.60;93.00;;;;;;5054911;28;20471;-77
2023/10/18 08:50:19;;;;;;;8.97;7.97;;;16.40;93.20;;;;;;5072234;28;20452;-76
2023/10/18 08:52:48;;;;;;;7.93;6.83;;;16.40;93.50;;;;;;5062347;28;20454;-79
2023/10/18 08:55:43;;;;;;;12.30;6.93;;;16.50;93.20;;;;;;5068668;28;20495;-78
2023/10/18 08:58:18;;;;;;;10.33;7.77;;;16.30;93.10;;;;;;5069242;28;20453;-77
2023/10/18 09:01:05;;;;;;;8.17;7.37;;;16.60;93.10;;;;;;5070816;28;20437;-76
2023/10/18 09:03:32;;;;;;;11.33;7.43;;;16.60;92.70;;;;;;5074063;28;20532;-75
2023/10/18 09:06:04;;;;;;;10.43;7.73;;;16.70;93.00;;;;;;5080660;28;20453;-81
2023/10/18 09:08:35;;;;;;;9.83;7.60;;;16.80;92.70;;;;;;5076421;28;20438;-76
2023/10/18 09:11:09;;;;;;;8.47;7.60;;;17.10;92.60;;;;;;5075831;28;20521;-76
2023/10/18 09:13:42;;;;;;;8.33;6.87;;;16.90;92.10;;;;;;5082828;28;20445;-78
2023/10/18 09:16:19;;;;;;;9.90;7.97;;;16.90;92.50;;;;;;5087072;28;20455;-74
2023/10/18 09:18:48;;;;;;;8.27;7.33;;;17.00;92.20;;;;;;5079668;28;20445;-79
2023/10/18 09:21:19;;;;;;;7.67;6.93;;;17.00;92.00;;;;;;5073718;28;20528;-78
2023/10/18 09:23:47;;;;;;;7.60;6.80;;;17.10;91.80;;;;;;5073463;28;20463;-76
2023/10/18 09:26:19;;;;;;;9.13;7.70;;;17.10;92.00;;;;;;5072893;28;20441;-74
2023/10/18 09:28:47;;;;;;;9.27;6.40;;;17.30;91.70;;;;;;5071919;28;20437;-77
2023/10/18 09:31:18;;;;;;;8.67;6.50;;;17.50;91.30;;;;;;5071182;28;20464;-75
2023/10/18 09:33:48;;;;;;;8.20;6.70;;;17.70;91.00;;;;;;5074031;28;20437;-79
2023/10/18 09:36:19;;;;;;;8.07;7.23;;;17.70;90.90;;;;;;5072669;28;20524;-75
2023/10/18 09:38:48;;;;;;;10.10;5.90;;;17.70;90.40;;;;;;5071851;28;20445;-76
2023/10/18 09:41:15;;;;;;;9.03;6.60;;;17.10;90.30;;;;;;5070904;28;20453;-81
2023/10/18 09:43:42;;;;;;;6.53;5.80;;;16.60;91.40;;;;;;5073151;28;20523;-77
2023/10/18 09:46:13;;;;;;;8.07;6.47;;;16.30;91.80;;;;;;5067692;28;20476;-75
2023/10/18 09:48:42;;;;;;;6.60;5.87;;;16.10;92.10;;;;;;5069661;28;20456;-77
2023/10/18 09:51:10;;;;;;;6.47;5.20;;;15.80;92.20;;;;;;5075878;28;20540;-78
2023/10/18 09:53:43;;;;;;;6.22;5.63;;;15.60;92.20;;;;;;5076153;28;20538;-80
2023/10/18 09:56:11;;;;;;;10.82;5.72;;;15.30;92.40;;;;;;5075099;28;20207;-79
2023/10/18 09:58:42;;;;;;;10.50;6.55;;;15.00;92.80;;;;;;5075587;28;20289;-78
2023/10/18 10:01:14;;;;;;;7.35;5.88;;;15.00;93.60;;;;;;5074314;28;20693;-75
2023/10/18 10:03:50;;;;;;;10.15;6.00;;;15.10;93.50;;;;;;5071534;28;20208;-77
2023/10/18 10:06:22;;;;;;;12.23;6.95;;;15.30;93.30;;;;;;5074812;28;20230;-77
2023/10/18 10:08:55;;;;;;;9.90;6.47;;;15.30;93.60;;;;;;5075513;28;20202;-76
2023/10/18 10:11:29;;;;;;;13.20;8.23;;;15.50;93.20;;;;;;5075386;28;20754;-77
2023/10/18 10:14:00;;;;;;;7.20;6.50;;;15.90;93.00;;;;;;5065034;28;20800;-82
2023/10/18 10:16:31;;;;;;;6.73;6.10;;;15.80;92.60;;;;;;5074788;28;20245;-78
2023/10/18 10:19:04;;;;;;;6.33;5.80;;;15.80;92.80;;;;;;5074809;28;20991;-74
2023/10/18 10:21:34;;;;;;;6.45;5.85;;;15.80;92.30;;;;;;5075479;28;20888;-75
2023/10/18 10:24:29;;;;;;;8.38;7.47;;;15.40;92.40;;;;;;5075546;28;20208;-77
2023/10/18 10:26:54;;;;;;;8.67;6.93;;;15.20;93.20;;;;;;5069153;28;20245;-75
2023/10/18 10:29:34;;;;;;;6.78;6.07;;;14.90;93.60;;;;;;5074110;28;20439;-74
2023/10/18 10:32:05;;;;;;;7.07;6.38;;;14.80;93.60;;;;;;5071068;28;20197;-76
2023/10/18 10:34:37;;;;;;;6.82;6.18;;;14.40;94.10;;;;;;5074563;28;20231;-76
2023/10/18 10:37:08;;;;;;;7.35;6.65;;;14.50;94.30;;;;;;5075527;28;20300;-77
2023/10/18 10:39:43;;;;;;;6.78;6.18;;;14.50;94.60;;;;;;5076067;28;20207;-78
2023/10/18 10:42:19;;;;;;;10.90;6.72;;;14.40;94.70;;;;;;5072530;28;20215;-76
2023/10/18 10:45:07;;;;;;;10.02;7.63;;;14.10;94.60;;;;;;5071694;28;20207;-78
2023/10/18 10:47:42;;;;;;;6.72;6.13;;;14.20;94.80;;;;;;5057077;28;20597;-76
2023/10/18 10:50:10;;;;;;;10.30;6.72;;;14.20;94.70;;;;;;5057770;28;20206;-73
2023/10/18 10:52:40;;;;;;;7.88;6.65;;;14.30;95.10;;;;;;5075228;28;20195;-79
2023/10/18 10:55:18;;;;;;;7.45;6.70;;;14.30;94.70;;;;;;5071808;28;20211;-76
2023/10/18 10:57:46;;;;;;;7.68;6.95;;;14.30;94.70;;;;;;5062426;28;20254;-80
2023/10/18 11:03:48;;;;;;;12.27;8.10;;;14.00;94.80;;;;;;5069595;28;20204;-78
2023/10/18 11:06:21;;;;;;;11.43;8.00;;;14.00;94.60;;;;;;5045079;28;20211;-73
2023/10/18 11:08:49;;;;;;;9.20;7.35;;;14.20;94.70;;;;;;5074287;28;20587;-77
2023/10/18 11:11:17;;;;;;;8.68;7.03;;;13.80;93.80;;;;;;5071381;28;20210;-76
2023/10/18 11:13:45;;;;;;;10.88;6.82;;;13.80;94.20;;;;;;5074072;28;20205;-74
2023/10/18 11:16:12;;;;;;;11.15;7.20;;;13.80;94.50;;;;;;5073256;28;20235;-76
2023/10/18 11:18:42;;;;;;;9.57;7.80;;;13.90;94.50;;;;;;5071920;28;20195;-75
2023/10/18 11:21:21;;;;;;;7.82;7.00;;;14.00;93.80;;;;;;5071964;28;20203;-76
2023/10/18 11:23:51;;;;;;;8.70;7.80;;;13.80;94.10;;;;;;5073606;28;20194;-76
2023/10/18 11:26:24;;;;;;;11.80;6.50;;;13.50;94.10;;;;;;5072555;28;20709;-76
2023/10/18 11:28:56;;;;;;;8.45;6.75;;;13.50;94.70;;;;;;5076508;28;20203;-76
2023/10/18 11:31:27;;;;;;;9.43;6.80;;;13.50;94.70;;;;;;5076219;28;20198;-74
2023/10/18 11:34:05;;;;;;;9.88;6.72;;;13.50;94.30;;;;;;5076992;28;20684;-70
2023/10/18 11:36:33;;;;;;;8.20;6.10;;;13.40;94.00;;;;;;5055300;28;20585;-71
2023/10/18 11:39:18;;;;;;;9.80;5.72;;;13.30;94.20;;;;;;5072612;28;20515;-74
2023/10/18 11:41:52;;;;;;;11.52;7.35;;;13.20;94.00;;;;;;5072625;28;20211;-72
2023/10/18 11:44:30;;;;;;;6.43;5.82;;;13.30;94.40;;;;;;5070501;28;20278;-74
2023/10/18 11:47:03;;;;;;;9.18;7.70;;;13.50;94.60;;;;;;5072673;28;20230;-73
2023/10/18 11:49:39;;;;;;;8.25;6.18;;;13.50;94.60;;;;;;5068532;28;20285;-72
2023/10/18 11:52:12;;;;;;;9.73;6.10;;;13.50;94.60;;;;;;5073031;28;20301;-71
2023/10/18 11:54:39;;;;;;;10.10;6.88;;;13.50;94.80;;;;;;5072535;28;20230;-72
2023/10/18 11:57:28;;;;;;;8.70;6.07;;;13.60;94.40;;;;;;5072885;28;20284;-72
2023/10/18 11:59:56;;;;;;;9.18;7.05;;;13.50;94.10;;;;;;5065105;28;20202;-71
2023/10/18 12:02:28;;;;;;;6.53;5.82;;;13.50;94.30;;;;;;5073117;28;20199;-70
2023/10/18 12:04:57;;;;;;;8.02;7.22;;;13.30;94.50;;;;;;5072872;28;20198;-72
2023/10/18 12:07:24;;;;;;;7.43;6.60;;;13.40;94.70;;;;;;5071787;28;20237;-73
2023/10/18 12:09:52;;;;;;;7.45;6.10;;;13.30;94.40;;;;;;5074612;28;20221;-71
2023/10/18 12:12:20;;;;;;;9.07;5.95;;;13.30;94.60;;;;;;5075683;28;20195;-71
2023/10/18 12:14:48;;;;;;;10.30;5.95;;;13.20;94.70;;;;;;5074167;28;20209;-73
2023/10/18 12:17:16;;;;;;;7.25;5.97;;;13.20;94.70;;;;;;5072230;28;20294;-72
2023/10/18 12:19:43;;;;;;;11.85;6.65;;;13.20;94.90;;;;;;5070486;28;20657;-71
2023/10/18 12:22:15;;;;;;;9.02;6.25;;;13.30;95.10;;;;;;5072202;28;20264;-73
2023/10/18 12:24:42;;;;;;;7.05;5.75;;;13.30;95.10;;;;;;5071526;28;20276;-71
2023/10/18 12:27:18;;;;;;;6.80;5.97;;;13.30;95.10;;;;;;5060417;28;20222;-71
2023/10/18 12:29:45;;;;;;;7.47;5.72;;;13.20;95.20;;;;;;5071633;28;20206;-72
2023/10/18 12:32:23;;;;;;;8.23;6.65;;;13.20;95.30;;;;;;5073003;28;20293;-72
2023/10/18 12:34:56;;;;;;;7.50;6.10;;;13.20;95.00;;;;;;5075497;28;20249;-70
2023/10/18 12:37:25;;;;;;;6.78;5.38;;;13.10;95.00;;;;;;5072252;28;20284;-71
2023/10/18 12:39:53;;;;;;;6.70;6.00;;;13.00;95.00;;;;;;5074296;28;20209;-74
2023/10/18 12:42:21;;;;;;;10.00;6.50;;;13.00;95.20;;;;;;5069102;28;20234;-72
2023/10/18 12:44:48;;;;;;;7.45;6.07;;;13.00;95.40;;;;;;5072080;28;20260;-71
2023/10/18 12:47:19;;;;;;;7.18;6.13;;;13.00;95.40;;;;;;5071844;28;20276;-72
2023/10/18 12:49:50;;;;;;;6.97;6.18;;;13.20;95.50;;;;;;5057976;28;20202;-74
2023/10/18 12:55:29;;;;;;;7.47;6.10;;;13.00;95.40;;;;;;5066029;28;20202;-74
2023/10/18 12:57:54;;;;;;;7.40;6.25;;;13.00;95.30;;;;;;5070830;28;20230;-72
2023/10/18 13:00:23;;;;;;;9.85;6.10;;;13.00;95.30;;;;;;5066665;28;20200;-75
2023/10/18 13:05:43;;;;;;;6.35;5.68;;;13.00;95.80;;;;;;5064917;28;20194;-77
2023/10/18 13:08:17;;;;;;;8.18;6.85;;;13.00;95.90;;;;;;5054348;28;20228;-77
2023/10/18 13:10:48;;;;;;;6.60;6.00;;;13.00;95.90;;;;;;5054060;28;20210;-75
2023/10/18 13:13:16;;;;;;;8.00;5.38;;;13.10;95.80;;;;;;5072966;28;20211;-76
2023/10/18 13:15:46;;;;;;;12.75;6.15;;;13.10;95.80;;;;;;5072470;28;20321;-75
2023/10/18 13:18:14;;;;;;;6.43;5.32;;;13.20;96.10;;;;;;5068971;28;20243;-76
2023/10/18 13:20:44;;;;;;;7.28;6.05;;;13.20;95.50;;;;;;5072735;28;20281;-77
2023/10/18 13:23:12;;;;;;;9.77;5.72;;;13.10;95.40;;;;;;5074029;28;20214;-77
2023/10/18 13:25:49;;;;;;;8.15;6.03;;;13.10;95.80;;;;;;5076105;28;20195;-77
2023/10/18 13:28:24;;;;;;;6.60;5.53;;;13.20;95.60;;;;;;5059042;28;20258;-74
2023/10/18 13:30:53;;;;;;;5.75;5.25;;;13.10;95.60;;;;;;5051956;28;20279;-77